Time;durP1;ratioP1;P1;durP2;ratioP2;P2;SDS_P1;SDS_P2;PMS_P1;PMS_P2;Temp;Humidity;BMP_temperature;BMP_pressure;BME280_temperature;BME280_humidity;BME280_pressure;Samples;Min_cycle;Max_cycle;Signal;HPM_P1;HPM_P2
2022/12/26 01:03:40;;;;;;;;;;;;;;;;;;;;;
2022/12/26 09:46:54;;;;;;;4.72;1.95;;;8.90;99.90;;;;;;4679773;30;20066;-88
2022/12/26 09:49:37;;;;;;;2.80;1.50;;;8.80;99.90;;;;;;4665451;30;20058;-88
2022/12/26 09:52:38;;;;;;;4.28;1.35;;;9.10;99.90;;;;;;4659255;30;20051;-91
2022/12/26 09:55:22;;;;;;;7.10;1.80;;;9.00;99.90;;;;;;4678022;30;20500;-90
2022/12/26 09:57:53;;;;;;;12.05;1.52;;;9.00;99.90;;;;;;4663254;30;20148;-87
2022/12/26 10:00:29;;;;;;;12.02;1.20;;;8.90;99.90;;;;;;4666535;30;20081;-88
2022/12/26 10:03:55;;;;;;;;;;;;;;;;;;;;;
2022/12/26 10:06:41;;;;;;;6.93;0.75;;;9.10;99.90;;;;;;4650774;30;20077;-89
2022/12/26 10:09:44;;;;;;;6.72;1.00;;;8.40;99.90;;;;;;4651114;30;20072;-89
2022/12/26 10:12:32;;;;;;;5.70;0.60;;;8.30;99.90;;;;;;4664880;30;20105;-88
2022/12/26 10:15:29;;;;;;;6.78;1.17;;;8.20;99.90;;;;;;4667223;30;20488;-87
2022/12/26 10:18:28;;;;;;;6.53;0.75;;;8.70;99.90;;;;;;4667963;30;20171;-88
2022/12/26 10:21:05;;;;;;;7.32;1.08;;;8.00;99.90;;;;;;4667747;30;20069;-87
2022/12/26 10:23:55;;;;;;;6.95;1.02;;;8.00;99.90;;;;;;4705301;30;20107;-87
2022/12/26 10:26:36;;;;;;;4.72;0.68;;;7.90;99.90;;;;;;4728961;30;20052;-85
2022/12/26 10:29:28;;;;;;;6.72;0.90;;;8.50;99.90;;;;;;4720063;30;20052;-85
2022/12/26 10:32:08;;;;;;;8.40;0.98;;;8.00;99.90;;;;;;4735532;30;20057;-87
2022/12/26 10:34:45;;;;;;;5.22;0.80;;;7.90;99.90;;;;;;4708175;30;20186;-84
2022/12/26 10:37:20;;;;;;;12.25;1.27;;;7.90;99.90;;;;;;4719786;30;20057;-85
2022/12/26 10:39:54;;;;;;;7.45;1.17;;;7.90;99.90;;;;;;4735626;30;20063;-86
2022/12/26 10:42:35;;;;;;;7.53;1.35;;;7.90;99.90;;;;;;4734900;30;20542;-86
2022/12/26 10:45:25;;;;;;;6.10;0.55;;;7.80;99.90;;;;;;4735803;30;20067;-86
2022/12/26 10:48:28;;;;;;;8.13;0.82;;;7.80;99.90;;;;;;4725902;30;20056;-87
2022/12/26 10:51:20;;;;;;;;;;;;;;;;;;;;;
2022/12/26 10:54:23;;;;;;;7.82;1.25;;;7.80;99.90;;;;;;4740318;30;20056;-86
2022/12/26 10:57:23;;;;;;;6.80;0.70;;;8.40;99.90;;;;;;4750958;30;20040;-87
2022/12/26 11:00:22;;;;;;;5.65;0.98;;;7.70;99.90;;;;;;4736327;30;20525;-86
2022/12/26 11:03:16;;;;;;;6.40;0.90;;;7.70;99.90;;;;;;4725767;30;20061;-85
2022/12/26 11:06:11;;;;;;;11.35;1.65;;;7.60;99.90;;;;;;4712868;30;20126;-86
2022/12/26 11:09:24;;;;;;;3.10;0.60;;;7.70;99.90;;;;;;4751329;30;20052;-86
2022/12/26 11:12:50;;;;;;;;;;;;;;;;;;;;;
2022/12/26 11:16:07;;;;;;;;;;;7.70;99.90;;;;;;4727301;30;20053;-87
2022/12/26 11:19:36;;;;;;;6.78;1.45;;;7.70;99.90;;;;;;4730153;30;20019;-86
2022/12/26 11:22:53;;;;;;;7.15;0.50;;;7.70;99.90;;;;;;4719617;30;20048;-87
2022/12/26 11:25:43;;;;;;;;;;;;;;;;;;;;;
2022/12/26 11:28:53;;;;;;;9.77;1.20;;;7.60;99.90;;;;;;4696764;30;20524;-86
2022/12/26 11:31:58;;;;;;;2.72;0.30;;;7.60;99.90;;;;;;4697439;30;20061;-87
2022/12/26 11:35:04;;;;;;;;;;;;;;;;;;;;;
2022/12/26 11:38:33;;;;;;;8.07;0.63;;;7.60;99.90;;;;;;4663265;30;20787;-86
2022/12/26 11:44:12;;;;;;;7.35;0.63;;;7.20;99.90;;;;;;4649555;30;20129;-88
2022/12/26 11:47:02;;;;;;;8.60;0.75;;;7.70;99.90;;;;;;4649964;30;20058;-89
2022/12/26 11:49:59;;;;;;;8.98;0.95;;;6.90;99.90;;;;;;4650526;30;20050;-86
2022/12/26 11:52:56;;;;;;;3.08;0.38;;;6.90;99.90;;;;;;4649753;30;20141;-86
2022/12/26 11:55:44;;;;;;;6.07;0.38;;;7.70;99.90;;;;;;4629565;30;20059;-86
2022/12/26 11:58:29;;;;;;;7.10;0.77;;;7.20;99.90;;;;;;4617833;30;20154;-86
2022/12/26 12:01:13;;;;;;;10.82;1.08;;;7.20;99.90;;;;;;4645739;30;20107;-87
2022/12/26 12:03:49;;;;;;;5.63;0.75;;;7.30;99.90;;;;;;4632660;30;20098;-86
2022/12/26 12:06:36;;;;;;;7.60;0.70;;;7.30;99.90;;;;;;4632456;30;20548;-86
2022/12/26 12:10:00;;;;;;;5.60;0.98;;;7.20;99.90;;;;;;4646261;30;20484;-88
2022/12/26 12:13:08;;;;;;;5.28;0.73;;;7.20;99.90;;;;;;4646043;30;20065;-85
2022/12/26 12:15:49;;;;;;;7.60;1.02;;;7.10;99.90;;;;;;4658470;30;20422;-86
2022/12/26 12:18:52;;;;;;;4.22;0.68;;;7.20;99.90;;;;;;4666521;30;20531;-85
2022/12/26 12:21:48;;;;;;;6.75;0.93;;;7.20;99.90;;;;;;4666496;30;20540;-86
2022/12/26 12:24:39;;;;;;;9.52;0.98;;;7.20;99.90;;;;;;4679787;30;20061;-87
2022/12/26 12:27:40;;;;;;;6.93;0.80;;;7.20;99.90;;;;;;4665283;30;20144;-86
2022/12/26 12:30:41;;;;;;;8.10;0.80;;;7.20;99.90;;;;;;4680586;30;20054;-86
2022/12/26 12:33:46;;;;;;;12.52;1.42;;;7.20;99.90;;;;;;4698765;30;20107;-85
2022/12/26 12:37:09;;;;;;;6.88;0.85;;;7.30;99.90;;;;;;4704925;30;20057;-86
2022/12/26 12:40:19;;;;;;;6.07;0.80;;;7.30;99.90;;;;;;4707985;30;20044;-84
2022/12/26 12:43:26;;;;;;;6.85;0.60;;;7.20;99.90;;;;;;4737739;30;20849;-86
2022/12/26 12:46:41;;;;;;;7.65;1.05;;;7.10;99.90;;;;;;4737388;30;20508;-84
2022/12/26 12:49:42;;;;;;;;;;;7.10;99.90;;;;;;4730070;30;20558;-88
2022/12/26 12:52:53;;;;;;;7.28;0.85;;;7.00;99.90;;;;;;4704562;30;19974;-85
2022/12/26 12:56:10;;;;;;;4.00;0.82;;;7.00;99.90;;;;;;4734273;30;20057;-84
2022/12/26 12:58:57;;;;;;;;;;;7.10;99.90;;;;;;4739963;30;20060;-85
2022/12/26 13:01:41;;;;;;;3.20;0.77;;;7.00;99.90;;;;;;4737570;30;19984;-85
2022/12/26 13:04:58;;;;;;;8.65;0.95;;;7.10;99.90;;;;;;4736776;30;20064;-87
2022/12/26 13:07:41;;;;;;;;;;;7.00;99.90;;;;;;4721347;30;20452;-86
2022/12/26 13:10:49;;;;;;;;;;;;;;;;;;;;;
2022/12/26 13:14:06;;;;;;;3.92;0.60;;;6.90;99.90;;;;;;4719166;30;20063;-85
2022/12/26 13:17:08;;;;;;;2.97;0.73;;;6.80;99.90;;;;;;4736931;30;20056;-84
2022/12/26 13:20:12;;;;;;;5.70;0.90;;;6.60;99.90;;;;;;4700380;30;20065;-84
2022/12/26 13:26:56;;;;;;;5.32;0.60;;;6.70;99.90;;;;;;4686398;30;20093;-85
2022/12/26 13:30:23;;;;;;;3.97;0.77;;;6.60;99.90;;;;;;4682818;30;20058;-84
2022/12/26 13:33:24;;;;;;;5.82;0.47;;;6.60;99.90;;;;;;4683607;30;20089;-85
2022/12/26 13:36:49;;;;;;;4.63;0.60;;;6.70;99.90;;;;;;4682688;30;20050;-84
2022/12/26 13:39:48;;;;;;;4.28;0.60;;;6.90;99.90;;;;;;4682035;30;20545;-85
2022/12/26 13:46:48;;;;;;;4.13;0.93;;;6.70;99.90;;;;;;4686988;30;20466;-85
2022/12/26 13:49:53;;;;;;;4.35;0.77;;;6.80;99.90;;;;;;4684788;30;20049;-85
2022/12/26 13:52:54;;;;;;;4.00;0.60;;;6.60;99.90;;;;;;4718980;30;20110;-86
2022/12/26 13:56:10;;;;;;;5.00;0.70;;;6.60;99.90;;;;;;4718943;30;20049;-86
2022/12/26 13:59:37;;;;;;;2.40;0.45;;;6.60;99.90;;;;;;4719162;30;20122;-85
2022/12/26 14:02:35;;;;;;;7.78;0.95;;;6.60;99.90;;;;;;4731047;30;20052;-87
2022/12/26 14:05:50;;;;;;;6.18;0.60;;;5.90;99.90;;;;;;4731506;30;20134;-84
2022/12/26 14:08:50;;;;;;;4.35;0.43;;;6.50;99.90;;;;;;4736318;30;20072;-85
2022/12/26 14:12:20;;;;;;;;;;;;;;;;;;;;;
2022/12/26 14:15:28;;;;;;;9.70;0.75;;;6.60;99.90;;;;;;4732447;30;20060;-87
2022/12/26 14:18:45;;;;;;;4.45;0.82;;;6.50;99.90;;;;;;4735978;30;20110;-86
2022/12/26 14:21:54;;;;;;;;;;;;;;;;;;;;;
2022/12/26 14:25:21;;;;;;;;;;;;;;;;;;;;;
2022/12/26 14:28:06;;;;;;;2.13;0.45;;;6.20;99.90;;;;;;4735339;30;20110;-87
2022/12/26 14:31:03;;;;;;;2.35;0.50;;;6.20;99.90;;;;;;4735433;30;20096;-87
2022/12/26 14:33:50;;;;;;;3.58;0.43;;;6.80;99.90;;;;;;4702566;30;20053;-87
2022/12/26 14:36:37;;;;;;;3.10;0.60;;;6.10;99.90;;;;;;4702433;30;20183;-88
2022/12/26 14:39:23;;;;;;;4.40;0.50;;;6.00;99.90;;;;;;4718360;30;20587;-89
2022/12/26 14:46:50;;;;;;;;;;;;;;;;;;;;;
2022/12/26 14:50:10;;;;;;;;;;;;;;;;;;;;;
2022/12/26 14:53:41;;;;;;;7.70;0.73;;;5.70;99.90;;;;;;4734925;30;20145;-90
2022/12/26 14:56:42;;;;;;;3.88;0.80;;;5.70;99.90;;;;;;4679657;30;20065;-90
2022/12/26 14:59:42;;;;;;;8.68;0.93;;;5.70;99.90;;;;;;4664442;30;20054;-91
2022/12/26 15:03:05;;;;;;;3.58;0.57;;;5.70;99.90;;;;;;4635804;30;20110;-90
2022/12/26 15:06:06;;;;;;;;;;;;;;;;;;;;;
2022/12/26 15:09:38;;;;;;;;;;;;;;;;;;;;;
2022/12/26 15:12:43;;;;;;;6.72;0.68;;;5.50;99.90;;;;;;4666947;30;20196;-91
2022/12/26 15:16:07;;;;;;;;;;;;;;;;;;;;;
2022/12/26 15:23:27;;;;;;;;;;;;;;;;;;;;;
2022/12/26 15:44:46;;;;;;;;;;;;;;;;;;;;;
2022/12/26 15:48:20;;;;;;;;;;;;;;;;;;;;;
2022/12/26 15:52:06;;;;;;;3.10;1.25;;;5.10;99.90;;;;;;4738993;24;20061;-86
2022/12/26 15:55:50;;;;;;;6.72;1.67;;;5.00;99.90;;;;;;4698689;30;20100;-86
2022/12/26 15:59:12;;;;;;;;;;;;;;;;;;;;;
2022/12/26 16:02:45;;;;;;;6.65;1.40;;;5.30;99.90;;;;;;4629675;30;20542;-86
2022/12/26 16:06:05;;;;;;;;;;;;;;;;;;;;;
2022/12/26 16:09:26;;;;;;;6.13;0.60;;;4.70;99.90;;;;;;4596569;31;20149;-87
2022/12/26 16:12:29;;;;;;;1.25;0.70;;;4.60;99.90;;;;;;4564071;31;20060;-89
2022/12/26 16:15:46;;;;;;;5.18;1.13;;;4.60;99.90;;;;;;4566838;31;20064;-87
2022/12/26 16:18:44;;;;;;;4.45;1.00;;;4.60;99.90;;;;;;4572986;31;20076;-87
2022/12/26 16:33:05;;;;;;;3.58;0.60;;;4.30;99.90;;;;;;4645538;30;20102;-87
2022/12/26 16:36:41;;;;;;;;;;;;;;;;;;;;;
2022/12/26 16:40:00;;;;;;;;;;;;;;;;;;;;;
2022/12/26 16:43:21;;;;;;;3.55;0.77;;;4.20;99.90;;;;;;4696412;30;20531;-88
2022/12/26 16:46:44;;;;;;;5.53;0.73;;;4.20;99.90;;;;;;4718242;30;20065;-87
2022/12/26 16:50:07;;;;;;;3.25;0.80;;;4.20;99.90;;;;;;4718227;30;20585;-87
2022/12/26 16:53:29;;;;;;;1.92;0.50;;;4.20;99.90;;;;;;4741418;30;20064;-87
2022/12/26 16:56:48;;;;;;;7.95;0.85;;;4.10;99.90;;;;;;4718093;30;20561;-88
2022/12/26 17:00:22;;;;;;;;;;;;;;;;;;;;;
2022/12/26 17:03:44;;;;;;;4.28;1.25;;;3.40;99.90;;;;;;4716506;30;20053;-88
2022/12/26 17:07:18;;;;;;;;;;;;;;;;;;;;;
2022/12/26 17:10:52;;;;;;;7.50;1.25;;;4.80;99.90;;;;;;4674428;30;20142;-87
2022/12/26 17:14:10;;;;;;;1.83;0.70;;;4.00;99.90;;;;;;4718075;30;20114;-86
2022/12/26 17:17:11;;;;;;;6.95;0.90;;;4.10;99.90;;;;;;4717753;30;20059;-87
2022/12/26 17:20:28;;;;;;;6.25;1.38;;;4.00;99.90;;;;;;4724829;30;20061;-87
2022/12/26 17:23:42;;;;;;;5.80;1.25;;;5.10;99.90;;;;;;4717818;30;20082;-87
2022/12/26 17:27:29;;;;;;;;;;;;;;;;;;;;;
2022/12/26 17:30:38;;;;;;;4.88;0.50;;;4.00;99.90;;;;;;4701926;30;20078;-86
2022/12/26 17:33:51;;;;;;;;;;;;;;;;;;;;;
2022/12/26 17:37:04;;;;;;;3.60;0.85;;;4.00;99.90;;;;;;4717588;30;20103;-87
2022/12/26 17:40:20;;;;;;;2.78;0.68;;;4.00;99.90;;;;;;4717382;30;20447;-87
2022/12/26 17:43:28;;;;;;;;;;;;;;;;;;;;;
2022/12/26 17:46:38;;;;;;;3.55;0.50;;;3.80;99.90;;;;;;4733616;30;20539;-87
2022/12/26 17:49:52;;;;;;;5.80;0.73;;;4.50;99.90;;;;;;4717572;30;20064;-87
2022/12/26 17:52:58;;;;;;;7.40;0.77;;;3.90;99.90;;;;;;4699957;30;20065;-89
2022/12/26 17:56:04;;;;;;;2.97;0.55;;;3.80;99.90;;;;;;4654444;30;20077;-88
2022/12/26 17:59:20;;;;;;;2.85;0.52;;;3.80;99.90;;;;;;4681539;30;20072;-90
2022/12/26 18:02:42;;;;;;;;;;;;;;;;;;;;;
2022/12/26 18:05:46;;;;;;;4.47;0.50;;;3.80;99.90;;;;;;4665145;30;20104;-88
2022/12/26 18:09:16;;;;;;;;;;;;;;;;;;;;;
2022/12/26 18:12:41;;;;;;;4.07;0.70;;;3.70;99.90;;;;;;4648223;30;20059;-86
2022/12/26 18:15:56;;;;;;;5.97;0.77;;;3.60;99.90;;;;;;4648121;30;20071;-86
2022/12/26 18:19:12;;;;;;;;;;;;;;;;;;;;;
2022/12/26 18:23:00;;;;;;;2.70;0.65;;;3.60;99.90;;;;;;4648070;30;20060;-86
2022/12/26 18:26:30;;;;;;;;;;;;;;;;;;;;;
2022/12/26 18:29:50;;;;;;;;;;;;;;;;;;;;;
2022/12/26 18:33:10;;;;;;;3.78;1.10;;;3.50;99.90;;;;;;4676818;30;20456;-87
2022/12/26 18:36:14;;;;;;;5.05;0.68;;;3.50;99.90;;;;;;4699379;30;20061;-86
2022/12/26 18:39:38;;;;;;;;;;;;;;;;;;;;;
2022/12/26 18:43:02;;;;;;;;;;;;;;;;;;;;;
2022/12/26 18:46:00;;;;;;;4.78;0.50;;;2.90;99.90;;;;;;4716430;30;20053;-86
2022/12/26 18:49:10;;;;;;;7.10;0.68;;;3.50;99.90;;;;;;4699784;30;20140;-88
2022/12/26 18:52:24;;;;;;;1.80;0.50;;;3.50;99.90;;;;;;4681541;30;20076;-87
2022/12/26 18:55:34;;;;;;;2.22;0.63;;;4.20;99.90;;;;;;4663870;30;20125;-87
2022/12/26 18:58:58;;;;;;;4.50;1.00;;;3.50;99.90;;;;;;4664386;30;20525;-86
2022/12/26 19:02:28;;;;;;;2.55;0.60;;;3.50;99.90;;;;;;4664267;30;20117;-87
2022/12/26 19:05:54;;;;;;;7.22;0.65;;;3.50;99.90;;;;;;4664262;30;20070;-87
2022/12/26 19:09:22;;;;;;;;;;;;;;;;;;;;;
2022/12/26 19:12:48;;;;;;;4.00;0.73;;;3.60;99.90;;;;;;4664078;30;20073;-86
2022/12/26 19:16:04;;;;;;;2.45;0.63;;;3.70;99.90;;;;;;4662467;30;20062;-86
2022/12/26 19:19:22;;;;;;;5.75;1.65;;;3.70;99.90;;;;;;4663907;30;20069;-85
2022/12/26 19:22:38;;;;;;;;;;;;;;;;;;;;;
2022/12/26 19:26:00;;;;;;;4.93;1.50;;;3.90;99.90;;;;;;4700632;30;20061;-86
2022/12/26 19:29:14;;;;;;;;;;;;;;;;;;;;;
2022/12/26 19:32:28;;;;;;;;;;;;;;;;;;;;;
2022/12/26 19:35:23;;;;;;;6.82;1.13;;;3.90;99.90;;;;;;4702016;30;20119;-89
2022/12/26 19:42:17;;;;;;;3.13;0.80;;;3.90;99.90;;;;;;4717176;30;20074;-89
2022/12/26 19:45:14;;;;;;;;;;;3.00;99.90;;;;;;4717926;30;20060;-89
2022/12/26 19:48:32;;;;;;;1.83;0.85;;;3.80;99.90;;;;;;4701762;30;19980;-87
2022/12/26 19:51:44;;;;;;;2.90;0.77;;;4.90;99.90;;;;;;4702229;30;20389;-88
2022/12/26 19:54:54;;;;;;;;;;;;;;;;;;;;;
2022/12/26 19:58:04;;;;;;;2.45;0.90;;;3.80;99.90;;;;;;4669267;30;20076;-88
2022/12/26 20:01:27;;;;;;;6.28;1.52;;;3.80;99.90;;;;;;4698176;30;20064;-90
2022/12/26 20:04:42;;;;;;;5.10;0.95;;;4.70;99.90;;;;;;4712966;30;20145;-89
2022/12/26 20:08:10;;;;;;;5.30;1.00;;;3.80;99.90;;;;;;4715436;30;20048;-86
2022/12/26 20:11:26;;;;;;;4.43;0.70;;;3.90;99.90;;;;;;4715492;30;20565;-86
2022/12/26 20:14:22;;;;;;;2.47;0.70;;;3.80;99.90;;;;;;4717339;30;20435;-86
2022/12/26 20:17:33;;;;;;;3.40;0.63;;;3.80;99.90;;;;;;4722341;30;20049;-86
2022/12/26 20:21:06;;;;;;;;;;;;;;;;;;;;;
2022/12/26 20:24:30;;;;;;;5.70;0.82;;;3.90;99.90;;;;;;4725438;30;20049;-86
2022/12/26 20:27:47;;;;;;;;;;;;;;;;;;;;;
2022/12/26 20:31:08;;;;;;;;;;;;;;;;;;;;;
2022/12/26 20:34:20;;;;;;;;;;;;;;;;;;;;;
2022/12/26 20:37:32;;;;;;;;;;;;;;;;;;;;;
2022/12/26 20:40:08;;;;;;;6.13;0.73;;;3.90;99.90;;;;;;4713367;30;20144;-88
2022/12/26 20:43:32;;;;;;;;;;;;;;;;;;;;;
2022/12/26 20:46:46;;;;;;;5.65;0.80;;;4.80;99.90;;;;;;4715275;30;20238;-88
2022/12/26 20:50:10;;;;;;;;;;;;;;;;;;;;;
2022/12/26 20:53:28;;;;;;;;;;;;;;;;;;;;;
2022/12/26 20:56:54;;;;;;;;;;;;;;;;;;;;;
2022/12/26 21:00:20;;;;;;;4.93;0.68;;;3.90;99.90;;;;;;4699844;30;20093;-86
2022/12/26 21:03:38;;;;;;;;;;;;;;;;;;;;;
2022/12/26 21:06:52;;;;;;;5.05;0.93;;;3.70;99.90;;;;;;4701144;30;20094;-86
2022/12/26 21:10:20;;;;;;;;;;;;;;;;;;;;;
2022/12/26 21:13:22;;;;;;;;;;;;;;;;;;;;;
2022/12/26 21:16:50;;;;;;;;;;;;;;;;;;;;;
2022/12/26 21:19:59;;;;;;;;;;;;;;;;;;;;;
2022/12/26 21:23:26;;;;;;;4.88;1.35;;;3.60;99.90;;;;;;4700381;30;19927;-87
2022/12/26 21:26:32;;;;;;;2.08;0.60;;;3.60;99.90;;;;;;4699432;30;20061;-86
2022/12/26 21:29:31;;;;;;;2.30;0.68;;;3.40;99.90;;;;;;4701012;30;20057;-83
2022/12/26 21:32:44;;;;;;;5.97;1.00;;;3.50;99.90;;;;;;4684378;30;20191;-89
2022/12/26 21:36:04;;;;;;;;;;;;;;;;;;;;;
2022/12/26 21:39:55;;;;;;;;;;;;;;;;;;;;;
2022/12/26 21:58:15;;;;;;;5.10;0.85;;;3.40;99.90;;;;;;4532736;31;20554;-89
2022/12/26 22:01:06;;;;;;;2.20;0.52;;;3.40;99.90;;;;;;4517175;31;20069;-88
2022/12/26 22:06:38;;;;;;;2.63;0.80;;;4.00;99.90;;;;;;4503913;31;20097;-88
2022/12/26 22:09:11;;;;;;;1.85;0.60;;;3.70;99.90;;;;;;4502256;31;20713;-89
2022/12/26 22:14:59;;;;;;;4.80;0.68;;;3.50;99.90;;;;;;4516278;31;20110;-89
2022/12/26 22:17:33;;;;;;;4.70;0.52;;;3.50;99.90;;;;;;4502903;31;20062;-90
2022/12/26 22:20:00;;;;;;;3.53;0.70;;;3.50;99.90;;;;;;4517301;31;20100;-89
2022/12/26 22:22:43;;;;;;;3.00;0.55;;;3.50;99.90;;;;;;4502667;31;20054;-88
2022/12/26 22:25:14;;;;;;;3.17;0.60;;;3.50;99.90;;;;;;4567909;31;20505;-88
2022/12/26 22:27:46;;;;;;;7.40;1.08;;;3.20;99.90;;;;;;4624325;30;20518;-88
2022/12/26 22:30:44;;;;;;;;;;;;;;;;;;;;;
2022/12/26 22:33:49;;;;;;;5.32;0.40;;;3.10;99.90;;;;;;4744446;30;20074;-88
2022/12/26 22:37:05;;;;;;;3.47;0.60;;;3.70;99.90;;;;;;4734558;30;20191;-90
2022/12/26 22:40:21;;;;;;;4.07;0.47;;;3.40;99.90;;;;;;4735212;30;20067;-88
2022/12/26 22:43:52;;;;;;;1.85;0.50;;;3.40;99.90;;;;;;4734750;30;20517;-89
2022/12/26 22:47:02;;;;;;;2.97;0.60;;;3.40;99.90;;;;;;4718341;30;20081;-88
2022/12/26 22:50:26;;;;;;;2.63;0.50;;;4.20;99.90;;;;;;4736045;30;20084;-88
2022/12/26 22:53:29;;;;;;;5.75;0.90;;;3.00;99.90;;;;;;4750197;30;20485;-88
2022/12/26 22:56:42;;;;;;;2.72;0.70;;;4.30;99.90;;;;;;4716006;30;20053;-90
2022/12/26 22:59:53;;;;;;;3.20;0.40;;;4.10;99.90;;;;;;4700607;30;20440;-89
2022/12/26 23:02:59;;;;;;;2.10;0.50;;;4.40;99.90;;;;;;4701764;30;20135;-89
2022/12/26 23:32:49;;;;;;;3.17;0.50;;;3.50;99.90;;;;;;4738224;24;20151;-89
2022/12/26 23:40:41;;;;;;;3.85;1.10;;;3.60;99.90;;;;;;4656604;30;20064;-89
2022/12/26 23:44:00;;;;;;;3.35;0.90;;;3.70;99.90;;;;;;4629716;30;20063;-87
2022/12/26 23:47:13;;;;;;;2.88;0.60;;;3.60;99.90;;;;;;4580088;31;20052;-86
2022/12/26 23:50:39;;;;;;;;;;;;;;;;;;;;;
2022/12/26 23:53:58;;;;;;;8.15;0.80;;;3.50;99.90;;;;;;4497857;31;20063;-87
2022/12/26 23:57:16;;;;;;;;;;;;;;;;;;;;;
